Latest Coastal Weather Observations for Rowley Shoals

IDW60701

Issued at 11:25 pm WST Wednesday 17 September 2014 (issued every 10 minutes, with the page automatically refreshed every 10 minutes)

About coastal observations | Map of coastal stations | Coastal observations for WA | Marine services | Other Formats
Station Details ID: 200713 Name: ROWLEY SHOALS Lat: -17.52 Lon: 118.95 Height: 0.0 m
Data from the previous 72 hours. | See also: Recent months for locations in Western Australia
Date/Time
WST
Temp

°C
Wind Pressure Rain
since 9am
mm
Weather Cloud Vis
km
Sea
Height
m
Swell
Dir
 
Speed
knots
Gust
knots
hPa Trend Height
m
Period
s
Dir
17/11:00pm - WSW 5 6 1015.1 - - - - - - - - -
17/10:30pm - SW 5 7 1015.2 - - - - - - - - -
17/10:00pm - SW 4 5 1015.2 - - - - - - - - -
17/09:30pm - S 2 3 1015.1 - - - - - - - - -
17/09:00pm - S 3 6 1015.2 - - - - - - - - -
17/08:30pm - S 4 5 1015.0 - - - - - - - - -
17/08:00pm - S 2 4 1014.8 - - - - - - - - -
17/07:30pm - SSE 1 3 1014.5 - - - - - - - - -
17/07:00pm - SSE 0 4 1014.2 - - - - - - - - -
17/06:30pm - S 4 5 1013.7 - - - - - - - - -
17/06:00pm 25.6 E 1 4 1013.6 - - - - - - - - -
17/05:30pm 25.8 CALM 0 0 1013.2 - - - - - - - - -
17/05:00pm 25.8 SE 2 4 1012.9 - - - - - - - - -
17/04:30pm 26.0 E 1 6 1012.4 - - - - - - - - -
17/04:00pm 25.9 NE 4 5 1012.5 - - - - - - - - -
17/03:30pm - NE 3 6 1012.5 - - - - - - - - -
17/03:00pm - E 2 5 1012.5 - - - - - - - - -
17/02:30pm - SE 4 6 1012.6 - - - - - - - - -
17/02:00pm - SE 5 7 1012.8 - - - - - - - - -
17/01:30pm - SE 7 7 1013.0 - - - - - - - - -
17/01:00pm - SSE 4 8 1013.2 - - - - - - - - -
17/12:30pm - SSW 7 10 1013.3 - - - - - - - - -
17/12:00pm - SW 13 16 1013.1 - - - - - - - - -
17/11:30am - SW 11 13 1013.7 - - - - - - - - -
17/11:00am - S 7 10 1014.0 - - - - - - - - -
17/10:30am - S 7 11 1014.5 - - - - - - - - -
17/10:00am - SW 9 11 1014.3 - - - - - - - - -
17/09:30am - SW 6 7 1014.7 - - - - - - - - -
17/09:00am - SW 6 8 1014.6 - - - - - - - - -
17/08:30am - WSW 10 12 1014.1 - - - - - - - - -
17/08:00am - WSW 10 14 1013.7 - - - - - - - - -
17/07:30am - W 7 8 1013.5 - - - - - - - - -
17/07:00am - W 9 11 1013.0 - - - - - - - - -
17/06:30am - W 10 11 1012.6 - - - - - - - - -
17/06:00am - W 10 10 1012.2 - - - - - - - - -
17/05:30am - W 10 12 1011.9 - - - - - - - - -
17/05:00am - W 9 12 1011.7 - - - - - - - - -
17/04:30am - W 10 11 1011.3 - - - - - - - - -
17/04:00am - W 9 11 1011.1 - - - - - - - - -
17/03:30am - W 9 11 1011.2 - - - - - - - - -
17/03:00am - W 10 10 1011.2 - - - - - - - - -
17/02:30am - W 8 10 1011.4 - - - - - - - - -
17/02:00am - W 8 10 1011.4 - - - - - - - - -
17/01:30am - W 8 9 1011.5 - - - - - - - - -
17/01:00am - W 8 9 1011.6 - - - - - - - - -
17/12:30am - W 7 8 1011.8 - - - - - - - - -
17/12:00am - W 6 7 1012.1 - - - - - - - - -
 
Date/Time
WST
Temp

°C
Wind Pressure Rain
since 9am
mm
Weather Cloud Vis
km
Sea
Height
m
Swell
Dir
 
Speed
knots
Gust
knots
hPa Trend Height
m
Period
s
Dir
16/11:30pm - W 6 7 1012.3 - - - - - - - - -
16/11:00pm - WNW 4 6 1012.5 - - - - - - - - -
16/10:30pm - NNW 3 4 1012.5 - - - - - - - - -
16/10:00pm - N 4 5 1012.5 - - - - - - - - -
16/09:30pm - N 3 6 1012.6 - - - - - - - - -
16/09:00pm - NNW 4 4 1012.6 - - - - - - - - -
16/08:30pm - N 4 5 1012.6 - - - - - - - - -
16/08:00pm - N 4 5 1012.5 - - - - - - - - -
16/07:30pm - NE 2 4 1012.1 - - - - - - - - -
16/07:00pm - NNW 0 4 1011.9 - - - - - - - - -
16/06:30pm - N 3 5 1011.3 - - - - - - - - -
16/06:00pm - N 4 6 1011.0 - - - - - - - - -
16/05:30pm - N 4 5 1010.8 - - - - - - - - -
16/05:00pm - N 5 8 1010.7 - - - - - - - - -
16/04:30pm - N 5 7 1010.5 - - - - - - - - -
16/04:00pm - N 6 6 1010.3 - - - - - - - - -
16/03:30pm - E 6 10 1009.8 - - - - - - - - -
16/03:00pm - NE 6 12 1010.1 - - - - - - - - -
16/02:30pm - E 6 8 1010.4 - - - - - - - - -
16/02:00pm - E 11 12 1010.7 - - - - - - - - -
16/01:30pm - ESE 11 11 1010.9 - - - - - - - - -
16/01:00pm - SSW 10 13 1010.4 - - - - - - - - -
16/12:30pm - S 9 11 1011.1 - - - - - - - - -
16/12:00pm - S 7 12 1011.2 - - - - - - - - -
16/11:30am - SW 12 13 1011.2 - - - - - - - - -
16/11:00am - SW 13 14 1011.4 - - - - - - - - -
16/10:30am - SW 12 14 1011.8 - - - - - - - - -
16/10:00am - WSW 12 14 1012.1 - - - - - - - - -
16/09:30am - WSW 13 15 1012.3 - - - - - - - - -
16/09:00am - WSW 13 16 1012.5 - - - - - - - - -
16/08:30am - SW 12 14 1012.5 - - - - - - - - -
16/08:00am - WSW 13 14 1012.1 - - - - - - - - -
16/07:30am - W 10 11 1012.3 - - - - - - - - -
16/07:00am - WNW 7 9 1012.2 - - - - - - - - -
16/06:30am - WNW 6 8 1011.7 - - - - - - - - -
16/06:00am - WNW 7 8 1011.6 - - - - - - - - -
16/05:30am - NW 3 5 1011.3 - - - - - - - - -
16/05:00am - W 4 5 1011.1 - - - - - - - - -
16/04:30am - W 5 8 1011.3 - - - - - - - - -
16/04:00am - WNW 10 11 1010.6 - - - - - - - - -
16/03:30am - WNW 10 11 1010.6 - - - - - - - - -
16/03:00am - WNW 11 12 1010.5 - - - - - - - - -
16/02:30am - WNW 10 11 1010.9 - - - - - - - - -
16/02:00am - NW 10 11 1010.9 - - - - - - - - -
16/01:30am - WNW 9 10 1011.0 - - - - - - - - -
16/01:00am - NW 11 12 1011.0 - - - - - - - - -
16/12:30am - NW 8 9 1011.4 - - - - - - - - -
16/12:00am - NW 8 11 1011.5 - - - - - - - - -
 
Date/Time
WST
Temp

°C
Wind Pressure Rain
since 9am
mm
Weather Cloud Vis
km
Sea
Height
m
Swell
Dir
 
Speed
knots
Gust
knots
hPa Trend Height
m
Period
s
Dir
15/11:30pm - WNW 12 14 1011.5 - - - - - - - - -
15/11:00pm - NW 10 11 1011.7 - - - - - - - - -
15/10:30pm - NNW 7 9 1012.0 - - - - - - - - -
15/10:00pm - NNW 7 9 1012.2 - - - - - - - - -
15/09:30pm - NNW 6 7 1012.3 - - - - - - - - -
15/09:00pm - NNW 7 9 1012.3 - - - - - - - - -
15/08:30pm - N 6 7 1012.3 - - - - - - - - -
15/08:00pm - N 7 8 1012.2 - - - - - - - - -
15/07:30pm - N 7 9 1011.8 - - - - - - - - -
15/07:00pm - N 7 8 1011.7 - - - - - - - - -
15/06:30pm - N 7 9 1011.2 - - - - - - - - -
15/06:00pm - NNE 6 8 1011.0 - - - - - - - - -
15/05:30pm - N 6 7 1010.7 - - - - - - - - -
15/05:00pm - N 7 8 1010.4 - - - - - - - - -
15/04:30pm - N 8 9 1010.2 - - - - - - - - -
15/04:00pm - N 8 10 1010.2 - - - - - - - - -
15/03:30pm - NNE 9 11 1010.2 - - - - - - - - -
15/03:00pm - N 10 11 1010.2 - - - - - - - - -
15/02:30pm - NNE 11 12 1010.3 - - - - - - - - -
15/02:00pm - NNE 9 11 1010.5 - - - - - - - - -
15/01:30pm - NE 9 11 1010.9 - - - - - - - - -
15/01:00pm - NE 9 10 1011.3 - - - - - - - - -
15/12:30pm - NE 9 11 1011.5 - - - - - - - - -
15/12:00pm - NE 8 10 1011.7 - - - - - - - - -
15/11:30am - NNE 7 9 1011.8 - - - - - - - - -
15/11:00am - NE 8 9 1012.0 - - - - - - - - -
15/10:30am - NNE 6 10 1012.6 - - - - - - - - -
15/10:00am - N 4 - 1012.5 - - - - - - - - -
15/09:30am - NNE 6 9 1012.8 - - - - - - - - -
15/09:00am - WNW 3 4 1012.2 - - - - - - - - -
15/08:30am - CALM 0 0 1012.0 - - - - - - - - -
15/08:00am - CALM 0 2 1011.9 - - - - - - - - -
15/07:30am - WNW 3 4 1011.7 - - - - - - - - -
15/07:00am - WNW 2 3 1011.6 - - - - - - - - -
15/06:30am - WNW 2 3 1011.4 - - - - - - - - -
15/06:00am - WNW 1 0 1011.3 - - - - - - - - -
15/05:30am - SSE 1 4 1010.6 - - - - - - - - -
15/05:00am - SE 1 4 1010.5 - - - - - - - - -
15/04:30am - S 5 6 1010.4 - - - - - - - - -
15/04:00am - S 4 7 1010.5 - - - - - - - - -
15/03:30am - S 5 7 1010.6 - - - - - - - - -
15/03:00am - SE 4 6 1010.7 - - - - - - - - -
15/02:30am - SE 5 7 1010.8 - - - - - - - - -
15/02:00am - SSW 8 8 1010.6 - - - - - - - - -
15/01:30am - SSW 4 6 1010.7 - - - - - - - - -
15/01:00am - S 7 6 1011.0 - - - - - - - - -
15/12:30am - WSW 7 8 1011.3 - - - - - - - - -
15/12:00am - SW 6 5 1011.6 - - - - - - - - -
 
Date/Time
WST
Temp

°C
Wind Pressure Rain
since 9am
mm
Weather Cloud Vis
km
Sea
Height
m
Swell
Dir
 
Speed
knots
Gust
knots
hPa Trend Height
m
Period
s
Dir
14/11:30pm - S 1 3 1011.6 - - - - - - - - -

Other Formats:

Comma delimited format used in spreadsheet applications
http://www.bom.gov.au/fwo/IDW60701/IDW60701.94207.axf

JavaScript Object Notation format (JSON) in row-major order
http://www.bom.gov.au/fwo/IDW60701/IDW60701.94207.json